createdAt,value
2018-07-31T00:02:00.476Z,6.27
2018-07-31T00:04:29.027Z,6.50
2018-07-31T00:06:57.621Z,6.50
2018-07-31T00:09:26.170Z,7.13
2018-07-31T00:11:54.776Z,6.30
2018-07-31T00:14:23.320Z,6.70
2018-07-31T00:16:51.854Z,6.07
2018-07-31T00:19:20.402Z,6.43
2018-07-31T00:21:48.998Z,5.70
2018-07-31T00:24:17.509Z,6.10
2018-07-31T00:26:46.063Z,6.20
2018-07-31T00:29:14.608Z,6.63
2018-07-31T00:31:43.225Z,6.50
2018-07-31T00:34:11.789Z,6.57
2018-07-31T00:36:40.349Z,7.47
2018-07-31T00:39:10.076Z,6.93
2018-07-31T00:41:38.630Z,6.93
2018-07-31T00:44:07.207Z,6.77
2018-07-31T00:46:36.089Z,6.70
2018-07-31T00:49:04.817Z,6.60
2018-07-31T00:51:33.364Z,5.80
2018-07-31T00:54:01.887Z,6.03
2018-07-31T00:56:30.431Z,6.93
2018-07-31T00:58:58.956Z,6.13
2018-07-31T01:01:27.492Z,6.50
2018-07-31T01:03:56.283Z,6.10
2018-07-31T01:06:26.783Z,6.47
2018-07-31T01:08:55.722Z,6.70
2018-07-31T01:11:24.319Z,6.83
2018-07-31T01:13:52.899Z,6.53
2018-07-31T01:16:21.426Z,6.60
2018-07-31T01:18:50.022Z,7.30
2018-07-31T01:21:18.569Z,7.17
2018-07-31T01:23:47.082Z,6.60
2018-07-31T01:26:15.608Z,5.70
2018-07-31T01:28:44.174Z,6.40
2018-07-31T01:31:12.726Z,7.10
2018-07-31T01:33:41.290Z,7.10
2018-07-31T01:36:09.827Z,7.00
2018-07-31T01:38:38.388Z,6.73
2018-07-31T01:41:06.994Z,7.10
2018-07-31T01:43:35.554Z,7.70
2018-07-31T01:46:04.139Z,6.43
2018-07-31T01:48:32.714Z,7.57
2018-07-31T01:51:01.246Z,7.10
2018-07-31T01:53:29.766Z,6.40
2018-07-31T01:55:58.317Z,6.70
2018-07-31T01:58:26.880Z,6.83
2018-07-31T02:00:55.439Z,7.37
2018-07-31T02:03:24.010Z,6.80
2018-07-31T02:05:52.553Z,6.50
2018-07-31T02:08:21.117Z,6.90
2018-07-31T02:10:50.512Z,7.27
2018-07-31T02:13:19.506Z,6.70
2018-07-31T02:15:48.027Z,7.40
2018-07-31T02:18:16.562Z,6.80
2018-07-31T02:20:45.115Z,6.87
2018-07-31T02:23:13.651Z,7.33
2018-07-31T02:25:42.289Z,6.83
2018-07-31T02:28:10.908Z,7.40
2018-07-31T02:30:39.406Z,7.93
2018-07-31T02:33:07.963Z,7.30
2018-07-31T02:35:36.471Z,7.00
2018-07-31T02:38:05.086Z,7.23
2018-07-31T02:40:33.604Z,7.03
2018-07-31T02:43:02.166Z,7.87
2018-07-31T02:45:30.757Z,7.57
2018-07-31T02:47:59.298Z,7.00
2018-07-31T02:50:27.828Z,7.70
2018-07-31T02:52:56.414Z,7.23
2018-07-31T02:55:25.061Z,7.60
2018-07-31T02:57:53.631Z,7.13
2018-07-31T03:00:22.174Z,6.70
2018-07-31T03:02:50.695Z,6.57
2018-07-31T03:05:19.286Z,7.40
2018-07-31T03:07:47.806Z,7.67
2018-07-31T03:10:16.342Z,7.33
2018-07-31T03:12:44.915Z,6.90
2018-07-31T03:15:13.492Z,7.40
2018-07-31T03:17:41.995Z,7.17
2018-07-31T03:20:10.583Z,7.57
2018-07-31T03:22:39.135Z,8.23
2018-07-31T03:25:07.731Z,7.70
2018-07-31T03:27:36.254Z,7.80
2018-07-31T03:30:05.170Z,8.93
2018-07-31T03:32:33.771Z,8.30
2018-07-31T03:35:02.336Z,8.10
2018-07-31T03:37:30.857Z,8.20
2018-07-31T03:39:59.413Z,7.13
2018-07-31T03:42:27.955Z,8.00
2018-07-31T03:44:56.491Z,7.83
2018-07-31T03:47:25.032Z,7.67
2018-07-31T03:49:53.634Z,7.90
2018-07-31T03:52:22.172Z,7.40
2018-07-31T03:54:50.733Z,7.87
2018-07-31T03:57:19.263Z,7.27
2018-07-31T03:59:47.833Z,7.97
2018-07-31T04:02:16.361Z,7.80
2018-07-31T04:04:44.938Z,8.20
2018-07-31T04:07:13.445Z,7.40
2018-07-31T04:09:42.058Z,8.43
2018-07-31T04:12:10.590Z,8.13
2018-07-31T04:14:39.166Z,8.40
2018-07-31T04:17:07.836Z,7.70
2018-07-31T04:19:36.387Z,7.93
2018-07-31T04:22:04.918Z,7.47
2018-07-31T04:24:33.465Z,7.70
2018-07-31T04:27:01.990Z,7.73
2018-07-31T04:29:30.548Z,8.23
2018-07-31T04:31:59.090Z,7.80
2018-07-31T04:34:27.700Z,7.77
2018-07-31T04:36:56.251Z,8.23
2018-07-31T04:39:24.795Z,8.90
2018-07-31T04:41:53.311Z,7.70
2018-07-31T04:44:21.895Z,7.50
2018-07-31T04:46:50.412Z,8.37
2018-07-31T04:49:18.959Z,7.63
2018-07-31T04:51:47.504Z,7.60
2018-07-31T04:54:16.078Z,7.90
2018-07-31T04:56:44.648Z,8.90
2018-07-31T04:59:13.170Z,8.00
2018-07-31T05:01:41.758Z,8.20
2018-07-31T05:04:10.318Z,8.10
2018-07-31T05:06:38.931Z,8.20
2018-07-31T05:09:09.608Z,7.47
2018-07-31T05:11:38.163Z,7.90
2018-07-31T05:14:07.228Z,7.70
2018-07-31T05:16:35.820Z,8.07
2018-07-31T05:19:04.398Z,8.13
2018-07-31T05:21:33.157Z,8.50
2018-07-31T05:24:01.906Z,8.50
2018-07-31T05:26:30.516Z,7.90
2018-07-31T05:28:59.070Z,8.00
2018-07-31T05:31:27.612Z,9.43
2018-07-31T05:33:56.172Z,8.40
2018-07-31T05:36:24.738Z,8.40
2018-07-31T05:38:53.274Z,7.37
2018-07-31T05:41:21.845Z,7.33
2018-07-31T05:43:50.376Z,8.00
2018-07-31T05:46:18.996Z,7.60
2018-07-31T05:48:47.480Z,7.23
2018-07-31T05:51:16.084Z,6.87
2018-07-31T05:53:44.648Z,7.70
2018-07-31T05:56:13.190Z,7.00
2018-07-31T05:58:41.749Z,7.47
2018-07-31T06:01:10.314Z,6.80
2018-07-31T06:03:38.893Z,6.77
2018-07-31T06:06:07.463Z,7.37
2018-07-31T06:08:35.996Z,6.00
2018-07-31T06:11:04.829Z,6.80
2018-07-31T06:13:33.387Z,6.43
2018-07-31T06:16:01.980Z,6.67
2018-07-31T06:18:30.520Z,6.67
2018-07-31T06:20:59.094Z,6.40
2018-07-31T06:23:27.608Z,6.00
2018-07-31T06:25:56.202Z,5.80
2018-07-31T06:28:24.698Z,6.33
2018-07-31T06:30:53.254Z,5.53
2018-07-31T06:33:21.786Z,5.47
2018-07-31T06:35:50.350Z,5.50
2018-07-31T06:38:18.872Z,6.27
2018-07-31T06:40:47.449Z,5.50
2018-07-31T06:43:15.991Z,5.80
2018-07-31T06:45:44.558Z,5.77
2018-07-31T06:48:13.038Z,5.70
2018-07-31T06:50:41.624Z,5.97
2018-07-31T06:53:10.154Z,5.60
2018-07-31T06:55:38.710Z,5.90
2018-07-31T06:58:07.742Z,5.37
2018-07-31T07:00:36.288Z,5.60
2018-07-31T07:03:04.927Z,5.53
2018-07-31T07:05:33.462Z,5.43
2018-07-31T07:08:02.034Z,5.60
2018-07-31T07:10:30.547Z,5.23
2018-07-31T07:12:59.165Z,5.43
2018-07-31T07:15:27.766Z,5.67
2018-07-31T07:17:56.290Z,5.30
2018-07-31T07:20:24.800Z,5.40
2018-07-31T07:22:53.544Z,5.80
2018-07-31T07:25:22.080Z,5.30
2018-07-31T07:27:50.641Z,5.20
2018-07-31T07:30:19.162Z,4.80
2018-07-31T07:32:47.754Z,5.10
2018-07-31T07:35:16.306Z,5.27
2018-07-31T07:37:44.872Z,4.40
2018-07-31T07:40:13.468Z,4.80
2018-07-31T07:42:41.967Z,4.50
2018-07-31T07:45:10.511Z,4.80
2018-07-31T07:47:39.052Z,4.27
2018-07-31T07:50:07.587Z,4.70
2018-07-31T07:52:36.180Z,4.63
2018-07-31T07:55:04.753Z,4.50
2018-07-31T07:57:33.319Z,4.50
2018-07-31T08:00:01.836Z,4.30
2018-07-31T08:02:30.402Z,4.87
2018-07-31T08:04:58.933Z,4.70
2018-07-31T08:07:27.479Z,4.07
2018-07-31T08:09:56.035Z,4.37
2018-07-31T08:12:24.585Z,4.53
2018-07-31T08:14:53.141Z,4.50
2018-07-31T08:17:21.727Z,4.20
2018-07-31T08:19:50.245Z,4.63
2018-07-31T08:22:18.807Z,4.40
2018-07-31T08:24:47.345Z,5.00
2018-07-31T08:27:15.897Z,4.47
2018-07-31T08:29:44.412Z,4.10
2018-07-31T08:32:12.965Z,3.97
2018-07-31T08:34:41.482Z,4.70
2018-07-31T08:37:10.013Z,4.67
2018-07-31T08:39:38.538Z,4.00
2018-07-31T08:42:07.068Z,4.40
2018-07-31T08:44:35.623Z,4.50
2018-07-31T08:47:04.134Z,4.40
2018-07-31T08:49:35.633Z,4.33
2018-07-31T08:52:04.189Z,4.13
2018-07-31T08:54:32.718Z,4.53
2018-07-31T08:57:01.732Z,4.87
2018-07-31T08:59:30.296Z,4.67
2018-07-31T09:01:58.859Z,4.80
2018-07-31T09:04:27.422Z,3.87
2018-07-31T09:06:55.995Z,4.00
2018-07-31T09:09:24.546Z,4.03
2018-07-31T09:11:53.060Z,4.23
2018-07-31T09:14:21.629Z,4.07
2018-07-31T09:16:50.184Z,4.27
2018-07-31T09:19:18.731Z,3.60
2018-07-31T09:21:47.254Z,4.13
2018-07-31T09:24:15.809Z,4.27
2018-07-31T09:26:44.314Z,4.20
2018-07-31T09:29:12.890Z,4.20
2018-07-31T09:31:41.412Z,4.40
2018-07-31T09:34:09.971Z,4.43
2018-07-31T09:36:38.582Z,4.23
2018-07-31T09:39:09.326Z,3.80
2018-07-31T09:41:37.875Z,3.93
2018-07-31T09:44:06.924Z,3.90
2018-07-31T09:46:35.455Z,3.63
2018-07-31T09:49:04.037Z,4.53
2018-07-31T09:51:32.662Z,3.63
2018-07-31T09:54:01.199Z,4.50
2018-07-31T09:56:29.764Z,4.50
2018-07-31T09:58:58.287Z,4.30
2018-07-31T10:01:26.841Z,4.00
2018-07-31T10:03:55.382Z,4.10
2018-07-31T10:06:23.937Z,4.57
2018-07-31T10:08:52.510Z,4.00
2018-07-31T10:11:21.141Z,4.10
2018-07-31T10:13:49.713Z,3.90
2018-07-31T10:16:18.295Z,3.90
2018-07-31T10:18:46.864Z,3.90
2018-07-31T10:21:15.415Z,4.17
2018-07-31T10:23:43.954Z,3.90
2018-07-31T10:26:12.533Z,3.80
2018-07-31T10:28:41.070Z,3.80
2018-07-31T10:31:09.658Z,3.47
2018-07-31T10:33:38.170Z,3.67
2018-07-31T10:36:06.718Z,4.20
2018-07-31T10:38:35.237Z,3.60
2018-07-31T10:41:03.834Z,3.60
2018-07-31T10:43:32.357Z,4.03
2018-07-31T10:46:00.939Z,3.60
2018-07-31T10:48:29.464Z,3.33
2018-07-31T10:50:58.006Z,3.63
2018-07-31T10:53:26.740Z,3.30
2018-07-31T10:55:55.293Z,3.60
2018-07-31T10:58:23.862Z,3.50
2018-07-31T11:00:52.404Z,3.60
2018-07-31T11:03:20.958Z,3.20
2018-07-31T11:05:49.498Z,3.27
2018-07-31T11:08:18.078Z,3.67
2018-07-31T11:10:46.637Z,3.50
2018-07-31T11:13:15.143Z,3.80
2018-07-31T11:15:43.746Z,4.00
2018-07-31T11:18:12.307Z,3.17
2018-07-31T11:20:40.881Z,3.77
2018-07-31T11:23:09.422Z,3.30
2018-07-31T11:25:38.072Z,3.70
2018-07-31T11:28:06.831Z,3.20
2018-07-31T11:30:35.367Z,3.70
2018-07-31T11:33:03.961Z,3.13
2018-07-31T11:35:32.463Z,2.90
2018-07-31T11:38:01.016Z,3.43
2018-07-31T11:40:29.533Z,2.93
2018-07-31T11:42:58.074Z,2.90
2018-07-31T11:45:26.625Z,2.87
2018-07-31T11:47:55.176Z,2.80
2018-07-31T11:50:23.716Z,3.27
2018-07-31T11:52:52.536Z,3.00
2018-07-31T11:55:21.052Z,3.03
2018-07-31T11:57:49.638Z,3.10
2018-07-31T12:00:18.207Z,3.10
2018-07-31T12:02:46.766Z,2.83
2018-07-31T12:05:15.362Z,3.77
2018-07-31T12:07:43.989Z,2.90
2018-07-31T12:10:12.519Z,3.03
2018-07-31T12:12:41.092Z,2.70
2018-07-31T12:15:09.667Z,2.80
2018-07-31T12:17:38.252Z,2.43
2018-07-31T12:20:06.771Z,2.73
2018-07-31T12:22:35.340Z,2.80
2018-07-31T12:25:04.019Z,2.90
2018-07-31T12:27:32.580Z,2.70
2018-07-31T12:30:01.138Z,2.70
2018-07-31T12:32:29.715Z,3.00
2018-07-31T12:34:58.262Z,2.63
2018-07-31T12:37:26.824Z,2.50
2018-07-31T12:39:55.426Z,2.43
2018-07-31T12:42:24.006Z,2.70
2018-07-31T12:44:52.556Z,2.60
2018-07-31T12:47:21.089Z,2.40
2018-07-31T12:49:49.641Z,2.50
2018-07-31T12:52:18.144Z,3.20
2018-07-31T12:54:46.735Z,2.50
2018-07-31T12:57:15.266Z,2.83
2018-07-31T12:59:43.808Z,2.80
2018-07-31T13:02:12.379Z,2.53
2018-07-31T13:04:40.961Z,2.50
2018-07-31T13:07:09.496Z,2.50
2018-07-31T13:09:38.111Z,2.37
2018-07-31T13:12:06.685Z,2.80
2018-07-31T13:14:35.250Z,2.60
2018-07-31T13:17:03.756Z,2.50
2018-07-31T13:19:32.306Z,2.80
2018-07-31T13:22:00.855Z,2.73
2018-07-31T13:24:29.476Z,2.30
2018-07-31T13:26:57.978Z,2.30
2018-07-31T13:29:26.559Z,3.00
2018-07-31T13:31:55.113Z,2.50
2018-07-31T13:34:23.931Z,2.83
2018-07-31T13:36:52.445Z,2.50
2018-07-31T13:39:20.685Z,2.70
2018-07-31T13:41:49.244Z,2.67
2018-07-31T13:44:17.782Z,2.40
2018-07-31T13:46:46.445Z,2.60
2018-07-31T13:49:15.093Z,2.70
2018-07-31T13:51:43.654Z,2.73
2018-07-31T13:54:12.246Z,2.80
2018-07-31T13:56:40.784Z,2.30
2018-07-31T13:59:09.391Z,2.37
2018-07-31T14:01:37.985Z,2.40
2018-07-31T14:04:06.767Z,2.40
2018-07-31T14:06:35.325Z,2.60
2018-07-31T14:09:05.925Z,2.10
2018-07-31T14:11:34.472Z,2.97
2018-07-31T14:14:03.218Z,2.40
2018-07-31T14:16:31.751Z,2.30
2018-07-31T14:19:00.339Z,2.63
2018-07-31T14:21:28.992Z,2.50
2018-07-31T14:23:57.553Z,2.57
2018-07-31T14:26:26.117Z,2.60
2018-07-31T14:28:54.615Z,3.27
2018-07-31T14:31:23.168Z,2.50
2018-07-31T14:33:51.714Z,2.47
2018-07-31T14:36:20.283Z,2.73
2018-07-31T14:38:48.866Z,2.40
2018-07-31T14:41:17.420Z,2.63
2018-07-31T14:43:45.964Z,2.13
2018-07-31T14:46:15.687Z,3.40
2018-07-31T14:48:44.323Z,2.17
2018-07-31T14:51:12.882Z,2.40
2018-07-31T14:53:41.465Z,2.67
2018-07-31T14:56:10.030Z,2.50
2018-07-31T14:58:38.556Z,2.40
2018-07-31T15:01:07.204Z,2.30
2018-07-31T15:03:35.766Z,2.30
2018-07-31T15:06:04.393Z,2.57
2018-07-31T15:08:36.614Z,2.53
2018-07-31T15:11:05.221Z,2.60
2018-07-31T15:13:33.856Z,2.83
2018-07-31T15:16:02.507Z,2.40
2018-07-31T15:18:31.051Z,2.77
2018-07-31T15:20:59.652Z,2.33
2018-07-31T15:23:28.279Z,2.40
2018-07-31T15:25:56.818Z,2.30
2018-07-31T15:28:25.344Z,2.30
2018-07-31T15:30:53.908Z,2.70
2018-07-31T15:33:22.452Z,2.20
2018-07-31T15:35:51.123Z,2.30
2018-07-31T15:38:19.639Z,2.97
2018-07-31T15:40:48.338Z,2.40
2018-07-31T15:43:16.803Z,2.67
2018-07-31T15:45:45.354Z,2.73
2018-07-31T15:48:13.993Z,2.90
2018-07-31T15:50:42.614Z,2.87
2018-07-31T15:53:11.128Z,2.47
2018-07-31T15:55:39.694Z,2.60
2018-07-31T15:58:08.260Z,2.50
2018-07-31T16:00:36.805Z,2.53
2018-07-31T16:03:05.411Z,2.60
2018-07-31T16:05:33.951Z,2.20
2018-07-31T16:08:02.533Z,2.37
2018-07-31T16:10:31.129Z,2.43
2018-07-31T16:12:59.706Z,2.80
2018-07-31T16:15:28.273Z,2.30
2018-07-31T16:17:56.888Z,2.40
2018-07-31T16:20:25.426Z,2.20
2018-07-31T16:22:53.992Z,2.23
2018-07-31T16:25:22.572Z,2.27
2018-07-31T16:27:51.108Z,2.43
2018-07-31T16:30:19.623Z,2.10
2018-07-31T16:32:48.176Z,2.30
2018-07-31T16:35:16.732Z,2.03
2018-07-31T16:37:45.281Z,2.73
2018-07-31T16:40:13.807Z,2.50
2018-07-31T16:42:42.360Z,2.37
2018-07-31T16:45:10.921Z,2.27
2018-07-31T16:47:39.472Z,2.30
2018-07-31T16:50:08.026Z,2.20
2018-07-31T16:52:36.638Z,2.10
2018-07-31T16:55:05.210Z,2.33
2018-07-31T16:57:34.623Z,2.27
2018-07-31T17:00:03.203Z,2.10
2018-07-31T17:02:31.720Z,2.10
2018-07-31T17:05:00.280Z,2.10
2018-07-31T17:07:28.846Z,1.80
2018-07-31T17:09:57.413Z,2.23
2018-07-31T17:12:25.927Z,1.90
2018-07-31T17:14:54.486Z,1.63
2018-07-31T17:17:23.062Z,2.20
2018-07-31T17:19:51.639Z,2.20
2018-07-31T17:22:20.218Z,1.70
2018-07-31T17:24:48.757Z,1.93
2018-07-31T17:27:17.301Z,1.67
2018-07-31T17:29:45.829Z,1.87
2018-07-31T17:32:14.388Z,2.10
2018-07-31T17:34:42.922Z,1.90
2018-07-31T17:37:11.487Z,2.07
2018-07-31T17:39:40.026Z,1.70
2018-07-31T17:42:08.591Z,2.27
2018-07-31T17:44:37.191Z,2.00
2018-07-31T17:47:05.778Z,1.90
2018-07-31T17:49:34.307Z,2.17
2018-07-31T17:52:02.835Z,2.30
2018-07-31T17:54:31.424Z,2.20
2018-07-31T17:56:59.986Z,2.40
2018-07-31T17:59:28.562Z,2.40
2018-07-31T18:01:57.130Z,2.30
2018-07-31T18:04:25.678Z,2.20
2018-07-31T18:06:54.533Z,2.10
2018-07-31T18:09:23.110Z,1.90
2018-07-31T18:11:51.665Z,2.20
2018-07-31T18:14:20.218Z,2.40
2018-07-31T18:16:48.851Z,1.97
2018-07-31T18:19:17.411Z,2.00
2018-07-31T18:21:45.937Z,1.97
2018-07-31T18:24:14.639Z,1.60
2018-07-31T18:26:43.123Z,2.20
2018-07-31T18:29:11.782Z,2.40
2018-07-31T18:31:40.326Z,2.33
2018-07-31T18:34:08.863Z,1.80
2018-07-31T18:36:37.406Z,2.13
2018-07-31T18:39:09.094Z,2.33
2018-07-31T18:41:37.603Z,1.90
2018-07-31T18:44:06.267Z,2.10
2018-07-31T18:46:34.813Z,2.87
2018-07-31T18:49:03.367Z,2.33
2018-07-31T18:51:31.934Z,2.70
2018-07-31T18:54:00.488Z,2.50
2018-07-31T18:56:29.046Z,2.10
2018-07-31T18:58:57.609Z,2.13
2018-07-31T19:01:26.292Z,2.30
2018-07-31T19:03:59.448Z,2.40
2018-07-31T19:06:28.100Z,2.80
2018-07-31T19:08:56.695Z,2.70
2018-07-31T19:11:25.269Z,2.50
2018-07-31T19:13:53.946Z,3.00
2018-07-31T19:16:22.513Z,2.90
2018-07-31T19:18:51.052Z,2.50
2018-07-31T19:21:19.561Z,2.93
2018-07-31T19:23:48.192Z,2.60
2018-07-31T19:26:16.720Z,2.87
2018-07-31T19:28:45.274Z,3.13
2018-07-31T19:31:13.772Z,3.67
2018-07-31T19:33:42.332Z,3.30
2018-07-31T19:36:10.885Z,3.17
2018-07-31T19:38:39.524Z,3.20
2018-07-31T19:41:08.083Z,3.90
2018-07-31T19:43:36.664Z,3.23
2018-07-31T19:46:05.252Z,3.30
2018-07-31T19:48:33.878Z,3.90
2018-07-31T19:51:02.374Z,4.57
2018-07-31T19:53:30.888Z,4.53
2018-07-31T19:55:59.407Z,3.80
2018-07-31T19:58:27.928Z,4.23
2018-07-31T20:00:56.522Z,3.83
2018-07-31T20:03:25.052Z,4.33
2018-07-31T20:05:53.627Z,4.47
2018-07-31T20:08:22.203Z,3.73
2018-07-31T20:10:50.759Z,4.07
2018-07-31T20:13:19.304Z,4.43
2018-07-31T20:15:47.880Z,4.60
2018-07-31T20:18:16.436Z,4.30
2018-07-31T20:20:44.950Z,4.57
2018-07-31T20:23:13.473Z,5.30
2018-07-31T20:25:42.064Z,5.77
2018-07-31T20:28:10.584Z,7.00
2018-07-31T20:30:39.159Z,6.93
2018-07-31T20:33:07.683Z,5.90
2018-07-31T20:35:36.426Z,5.90
2018-07-31T20:38:04.994Z,5.60
2018-07-31T20:40:33.533Z,6.57
2018-07-31T20:43:02.059Z,6.30
2018-07-31T20:45:30.713Z,6.00
2018-07-31T20:47:59.265Z,6.57
2018-07-31T20:50:27.848Z,7.10
2018-07-31T20:52:56.382Z,6.73
2018-07-31T20:55:24.968Z,6.00
2018-07-31T20:57:53.509Z,6.83
2018-07-31T21:00:22.056Z,6.50
2018-07-31T21:02:50.567Z,7.67
2018-07-31T21:05:19.158Z,7.13
2018-07-31T21:07:47.722Z,6.17
2018-07-31T21:10:16.313Z,6.20
2018-07-31T21:12:44.879Z,6.87
2018-07-31T21:15:13.448Z,6.27
2018-07-31T21:17:41.974Z,6.93
2018-07-31T21:20:10.556Z,6.80
2018-07-31T21:22:39.048Z,7.87
2018-07-31T21:25:07.688Z,8.40
2018-07-31T21:27:36.250Z,7.40
2018-07-31T21:30:04.979Z,6.63
2018-07-31T21:32:33.537Z,6.80
2018-07-31T21:35:02.082Z,7.03
2018-07-31T21:37:30.620Z,7.40
2018-07-31T21:39:59.208Z,6.87
2018-07-31T21:42:27.721Z,7.30
2018-07-31T21:44:56.261Z,7.57
2018-07-31T21:47:24.768Z,7.60
2018-07-31T21:49:53.237Z,7.20
2018-07-31T21:52:21.782Z,7.53
2018-07-31T21:54:50.529Z,7.27
2018-07-31T21:57:19.085Z,7.00
2018-07-31T21:59:47.648Z,7.50
2018-07-31T22:02:16.196Z,7.63
2018-07-31T22:04:44.702Z,7.67
2018-07-31T22:07:13.261Z,7.20
2018-07-31T22:09:43.452Z,7.63
2018-07-31T22:12:12.378Z,7.10
2018-07-31T22:14:41.340Z,7.27
2018-07-31T22:17:09.906Z,7.60
2018-07-31T22:19:38.470Z,8.00
2018-07-31T22:22:07.037Z,7.43
2018-07-31T22:24:35.570Z,8.37
2018-07-31T22:27:04.148Z,8.37
2018-07-31T22:29:32.648Z,8.07
2018-07-31T22:32:01.198Z,8.17
2018-07-31T22:34:29.701Z,8.27
2018-07-31T22:36:58.243Z,7.37
2018-07-31T22:39:26.781Z,8.43
2018-07-31T22:41:55.359Z,8.50
2018-07-31T22:44:23.889Z,7.93
2018-07-31T22:46:52.428Z,7.90
2018-07-31T22:49:21.004Z,7.77
2018-07-31T22:51:49.550Z,8.20
2018-07-31T22:54:18.066Z,8.00
2018-07-31T22:56:46.603Z,8.53
2018-07-31T22:59:15.142Z,8.20
2018-07-31T23:01:43.673Z,7.77
2018-07-31T23:04:12.230Z,8.33
2018-07-31T23:06:40.786Z,8.63
2018-07-31T23:09:10.776Z,8.70
2018-07-31T23:11:39.333Z,8.07
2018-07-31T23:14:07.924Z,9.13
2018-07-31T23:16:37.084Z,8.53
2018-07-31T23:19:05.816Z,9.30
2018-07-31T23:21:34.410Z,8.20
2018-07-31T23:24:02.949Z,8.70
2018-07-31T23:26:31.529Z,8.50
2018-07-31T23:29:00.070Z,8.37
2018-07-31T23:31:28.627Z,8.73
2018-07-31T23:33:57.197Z,8.47
2018-07-31T23:36:25.764Z,9.00
2018-07-31T23:38:54.279Z,8.70
2018-07-31T23:41:22.804Z,9.57
2018-07-31T23:43:51.304Z,9.80
2018-07-31T23:46:19.855Z,10.30
2018-07-31T23:48:48.518Z,10.50
2018-07-31T23:51:17.055Z,10.70
2018-07-31T23:53:45.624Z,11.33
2018-07-31T23:56:14.138Z,11.20
2018-07-31T23:58:42.686Z,10.17
